Tyonek, Alaska
Current Conditions -  °F | °C
As of 7:53 AM on Friday 19 Dec 2014 (Local Time) from PAEN Reporting Station
Clear Clear  
Wind Chill: 17°   Ceiling: Unl
Heat Index: 29°   Visibility: 10mi
Dew Point: 19°   Wind: 16mph
Humidity: 67%   Direction: 10°N
Pressure: 29.14"   Gusts: NA
Location:  61.07°N, 151.16°W
Report Text: PAEN 191653Z 01014KT 10SM CLR M02/M07 A2914 RMK AO2 SLP870 T10171072
Loading
Personal Weather Stations






























Interactive Weather Map New forecast layout! Learn more

10-Day Weather Forecast

Advertisements
Track Severe Weather on mobile